Pays
Station

 

Conditions  météo  pour  Ithaca/Tompkins County  -  Etats-Unis    Etats-Unis

  
-1 °C
    
 
 

METAR pour Ithaca/Tompkins County :

KITH 221656Z 33006KT 9SM BR BKN015 OVC034 M01/M04 A3040 RMK AO2 UPB51E53SNE51 SLP308 P0000 T10111039

 

Voici le bulletin pour Ithaca/Tompkins County - Etats-Unis.
 
Le bulletin a été fait il y a 11 minutes, à 16:56 UTC .
Le vent soufflait à la vitesse de 3.1 mètres par seconde de Nord/Nord-ouest (330°).
 
La température était de -1 °C, avec un point de rosée à -4 °C.
La température ressentie était de -5 °C.
 
La pression atmosphérique était de 1029 hPa.
L'humidité relative était de 80.0%.
 
Il y avait 5 à 7/8ème de nébulosité à une hauteur de 457 mètres. Le ciel était nuageux à partir d'une hauteur de 1036 mètres
 
La visibilité globale était de 14.5 kilomètres.
 
Actuellement brume.

 
 
 

Pays :   A   B   C   D   E   F   G   H   I   J   K   L   M   N   O   P   Q   R   S   T   U   V   W   Y   Z

 

Partenaires :  Info Météo avec Met'info
Météo Marine avec MeteoMarine.net
Infos Site  |  Infos Légales  |  Crédits  |  Confidentialité
Contactez-nous  |  Ajouter aux favoris
© 2013-2019 METAR - Tous droits réservés